YLVT weather

CLOSED RAAF Williams, Laverton Base
Laverton, Victoria, Australia

Public forecast

Using degrees Celsius for public forecast. Weather courtesy of forecast.io.

METAR (pilot weather report)

Closest report is Melbourne Essendon Airport, 11.0 nm (20.4 km) NE. Retrieved 2019/03/24 23:04 UTC (2 minutes ago):

YMEN 242304Z AUTO 27019G29KT 9999 // BKN048 BKN056 OVC066 15/07 Q1006

TAF (pilot weather forecast)

Closest forecast is Melbourne International Airport, 12.3 nm (22.8 km) NNE. Retrieved 2019/03/24 18:36 UTC (4 hours ago):

TAF YMML 241706Z 2418/2524 29015G25KT CAVOK FM242300 28020G34KT 9999 -SHRA NSC FM250900 29012KT CAVOK FM252300 25014KT 9999 SCT045